Salmon Gums RES. Station, Western Australia

3:22 AM WST on September 02, 2014 (GMT +0800)
Esperance | Change Station
CLOSE
Current Station
Airport
Location: Esperance Airport,
Elevation: 469 ft
Nearby Weather Stations

Elev 469 ft 33.68 °S, 121.82 °E | Updated 22 minutes ago

Mostly Cloudy
Mostly Cloudy
46 °F
Feels Like 40 °F
N
14
Wind Variable Wind from NNE

Today
High -- | Low -- °F
--% Chance of Precip.
Yesterday
High -- | Low -- °F
Precip. -- in
6:10 AM 5:36 PM
Waxing Crescent, 43% visible
Pressure 30.21 in
Visibility 6.2 miles
Clouds Mostly Cloudy 7100 ft
Windchill 40 °F
Dew Point 39 °F
Humidity 76%
Rainfall 0.00 in
Snow Depth Not available.
UV 0 out of 12
Pollen Not available.
Air Quality Not available.
Flu Activity Not available.
METAR YESP 011900Z AUTO 03012KT 9999 // BKN071 08/04 Q1023

More Conditions Fewer Conditions

Pressure 30.21 in
Visibility 6.2 miles
Clouds Mostly Cloudy 7100 ft
Windchill 40 °F
Dew Point 39 °F
Humidity 76%
Rainfall 0.00 in
Snow Depth Not available.
UV 0 out of 12
Pollen Not available.
Air Quality Not available.
Flu Activity Not available.
METAR YESP 011900Z AUTO 03012KT 9999 // BKN071 08/04 Q1023

More Conditions Fewer Conditions

10-Day Weather Forecast

Almanac

Astronomy

Sep. 02, 2014 Rise Set
Actual Time 6:10 AM WST 5:36 PM WST
Civil Twilight 5:45 AM WST 6:01 PM WST
Nautical Twilight 5:16 AM WST 6:30 PM WST
Astronomical Twilight 4:48 AM WST 6:58 PM WST
Moon 10:38 AM WST (9/2) No Moon Set
Length of Visible Light 12h 15m
Length of Day
11h 26m
Tomorrow will be 1m 56s longer.
Waxing Crescent, 43% of the Moon is Illuminated
Sep 1
Waxing Crescent
Sep 2
First Quarter
Sep 8
Full
Sep 15
Last Quarter
Sep 24
New

Yesterday's Extremes

Country Highs Country Lows

Community

WunderPhotos

Upload Photos

1,749,378 photos uploaded!

WunderBlogs® & News

Nearby

Snow Depth

Not available.

Earthquake Activity

City Distance Mag. Time & Date
No recent earthquake activity has been reported nearby.
Minimum magnitude displayed is 2.5.

Coastal Water Temperatures

Place Temperature
No Stations Reporting

Nearby Weather Stations